Time;durP1;ratioP1;P1;durP2;ratioP2;P2;SDS_P1;SDS_P2;PMS_P1;PMS_P2;Temp;Humidity;BMP_temperature;BMP_pressure;BME280_temperature;BME280_humidity;BME280_pressure;Samples;Min_cycle;Max_cycle;Signal;HPM_P1;HPM_P2
2021/12/31 00:01:13;;;;;;;16.80;2.55;;;12.40;99.90;;;;;;4844711;29;20045;-90
2021/12/31 00:03:39;;;;;;;8.68;1.73;;;12.40;99.90;;;;;;4829333;29;20485;-91
2021/12/31 00:06:05;;;;;;;14.75;2.38;;;12.40;99.90;;;;;;4844617;29;20155;-87
2021/12/31 00:08:31;;;;;;;11.07;2.45;;;12.30;99.90;;;;;;4828943;29;20075;-91
2021/12/31 00:10:59;;;;;;;12.18;2.30;;;12.40;99.90;;;;;;4844126;29;20488;-92
2021/12/31 00:13:29;;;;;;;11.88;2.50;;;12.60;99.90;;;;;;4829143;29;20052;-90
2021/12/31 00:15:56;;;;;;;12.55;3.05;;;12.50;99.90;;;;;;4844560;29;20056;-91
2021/12/31 00:18:21;;;;;;;11.57;2.55;;;12.50;99.90;;;;;;4829160;29;20091;-92
2021/12/31 00:20:47;;;;;;;18.60;3.17;;;12.50;99.90;;;;;;4844303;29;20050;-93
2021/12/31 00:23:15;;;;;;;9.80;2.33;;;12.50;99.90;;;;;;4844320;29;20050;-92
2021/12/31 00:25:43;;;;;;;13.05;2.58;;;12.50;99.90;;;;;;4843979;29;20054;-91
2021/12/31 00:28:11;;;;;;;13.25;2.85;;;12.50;99.90;;;;;;4844278;29;20548;-90
2021/12/31 00:30:38;;;;;;;14.82;2.75;;;12.50;99.90;;;;;;4828941;29;20050;-93
2021/12/31 00:33:04;;;;;;;11.43;2.60;;;12.50;99.90;;;;;;4828978;29;20133;-92
2021/12/31 00:35:32;;;;;;;12.40;2.40;;;12.70;99.90;;;;;;4828561;29;20489;-92
2021/12/31 00:37:57;;;;;;;12.25;2.47;;;12.60;99.90;;;;;;4843758;29;20061;-90
2021/12/31 00:40:23;;;;;;;9.10;2.40;;;12.60;99.90;;;;;;4843578;29;20370;-92
2021/12/31 00:42:49;;;;;;;12.18;2.50;;;12.60;99.90;;;;;;4843941;29;20053;-90
2021/12/31 00:45:17;;;;;;;12.75;3.22;;;12.50;99.90;;;;;;4828567;29;20145;-92
2021/12/31 00:47:43;;;;;;;10.98;2.60;;;12.50;99.90;;;;;;4843847;29;20615;-90
2021/12/31 00:50:11;;;;;;;11.77;2.85;;;12.50;99.90;;;;;;4828464;29;20145;-90
2021/12/31 00:52:37;;;;;;;16.40;3.70;;;12.50;99.90;;;;;;4843577;29;20058;-91
2021/12/31 00:55:04;;;;;;;11.80;3.33;;;12.60;99.90;;;;;;4846811;29;20064;-91
2021/12/31 00:57:30;;;;;;;11.13;2.97;;;12.60;99.90;;;;;;4846242;29;20056;-93
2021/12/31 00:59:56;;;;;;;11.95;2.55;;;12.60;99.90;;;;;;4846857;29;20043;-91
2021/12/31 01:02:25;;;;;;;8.20;2.70;;;12.60;99.90;;;;;;4846638;29;20049;-92
2021/12/31 01:04:50;;;;;;;12.60;2.83;;;12.60;99.90;;;;;;4846500;29;20060;-93
2021/12/31 01:07:16;;;;;;;10.48;2.72;;;12.70;99.90;;;;;;4862021;29;20053;-91
2021/12/31 01:09:42;;;;;;;14.27;3.10;;;12.70;99.90;;;;;;4846956;29;20041;-91
2021/12/31 01:12:10;;;;;;;15.55;2.88;;;12.60;99.90;;;;;;4846463;29;20140;-92
2021/12/31 01:14:40;;;;;;;11.32;2.80;;;12.60;99.90;;;;;;4831492;29;20497;-93
2021/12/31 01:17:10;;;;;;;10.40;2.55;;;12.70;99.90;;;;;;4846673;29;20050;-91
2021/12/31 01:19:46;;;;;;;12.77;2.75;;;12.70;99.90;;;;;;4846503;29;20049;-93
2021/12/31 01:22:30;;;;;;;11.55;2.22;;;12.70;99.90;;;;;;4846409;29;20057;-92
2021/12/31 01:24:56;;;;;;;14.05;2.55;;;12.70;99.90;;;;;;4846532;29;20072;-92
2021/12/31 01:27:22;;;;;;;12.68;2.72;;;12.70;99.90;;;;;;4846239;29;20053;-93
2021/12/31 01:29:48;;;;;;;8.75;2.33;;;12.70;99.90;;;;;;4831039;29;20118;-92
2021/12/31 01:32:16;;;;;;;10.73;2.72;;;12.70;99.90;;;;;;4846040;29;20500;-92
2021/12/31 01:34:42;;;;;;;14.30;2.90;;;12.70;99.90;;;;;;4846081;29;20057;-92
2021/12/31 01:37:09;;;;;;;8.88;2.60;;;12.60;99.90;;;;;;4846002;29;20060;-92
2021/12/31 01:39:35;;;;;;;9.35;2.85;;;12.70;99.90;;;;;;4846308;29;20045;-90
2021/12/31 01:42:06;;;;;;;10.23;2.95;;;12.60;99.90;;;;;;4846409;29;20057;-91
2021/12/31 01:44:39;;;;;;;12.10;2.95;;;12.60;99.90;;;;;;4846073;29;20046;-91
2021/12/31 01:47:11;;;;;;;11.85;2.92;;;12.70;99.90;;;;;;4846360;29;20050;-92
2021/12/31 01:49:39;;;;;;;12.57;3.10;;;12.70;99.90;;;;;;4846396;29;20053;-93
2021/12/31 01:52:08;;;;;;;11.68;2.80;;;12.70;99.90;;;;;;4845849;29;20053;-92
2021/12/31 01:54:34;;;;;;;12.88;3.03;;;12.80;99.90;;;;;;4845976;29;20049;-91
2021/12/31 01:57:08;;;;;;;13.15;3.15;;;12.70;99.90;;;;;;4845797;29;20053;-91
2021/12/31 01:59:36;;;;;;;7.82;2.97;;;12.70;99.90;;;;;;4845825;29;20535;-94
2021/12/31 02:02:05;;;;;;;13.88;3.08;;;12.80;99.90;;;;;;4845683;29;20637;-92
2021/12/31 02:04:31;;;;;;;7.97;2.65;;;12.80;99.90;;;;;;4845390;29;20082;-92
2021/12/31 02:06:58;;;;;;;11.90;3.22;;;12.70;99.90;;;;;;4846111;29;20391;-93
2021/12/31 02:09:24;;;;;;;11.30;2.70;;;12.70;99.90;;;;;;4844696;29;20405;-91
2021/12/31 02:11:54;;;;;;;10.38;3.20;;;12.70;99.90;;;;;;4845162;29;20068;-92
2021/12/31 02:14:21;;;;;;;12.73;3.20;;;12.70;99.90;;;;;;4845552;29;20483;-92
2021/12/31 02:16:46;;;;;;;12.43;3.25;;;12.70;99.90;;;;;;4845825;29;20152;-92
2021/12/31 02:19:14;;;;;;;11.90;4.22;;;12.80;99.90;;;;;;4845032;29;20136;-90
2021/12/31 02:21:45;;;;;;;11.25;3.47;;;12.80;99.90;;;;;;4845128;29;20092;-92
2021/12/31 02:24:12;;;;;;;7.13;3.35;;;12.80;99.90;;;;;;4830241;29;20061;-92
2021/12/31 02:26:38;;;;;;;11.10;3.40;;;12.60;99.90;;;;;;4844839;29;20144;-91
2021/12/31 02:29:03;;;;;;;10.18;3.60;;;12.80;99.90;;;;;;4844924;29;20101;-93
2021/12/31 02:31:33;;;;;;;11.75;3.65;;;12.90;99.90;;;;;;4830230;29;20601;-96
2021/12/31 02:33:58;;;;;;;8.88;3.63;;;12.80;99.90;;;;;;4845206;29;20496;-93
2021/12/31 02:36:24;;;;;;;9.27;4.05;;;12.80;99.90;;;;;;4845123;29;20052;-92
2021/12/31 02:38:50;;;;;;;12.48;3.90;;;12.80;99.90;;;;;;4845451;29;20053;-93
2021/12/31 02:41:16;;;;;;;10.57;3.85;;;12.90;99.90;;;;;;4845224;29;20045;-93
2021/12/31 02:43:42;;;;;;;8.13;3.60;;;12.80;99.90;;;;;;4845816;29;20053;-91
2021/12/31 02:46:07;;;;;;;11.75;4.05;;;12.80;99.90;;;;;;4830601;29;20099;-93
2021/12/31 02:48:33;;;;;;;10.73;3.70;;;12.70;99.90;;;;;;4844821;29;20097;-92
2021/12/31 02:51:01;;;;;;;11.32;4.28;;;12.90;99.90;;;;;;4845358;29;20075;-92
2021/12/31 02:53:38;;;;;;;14.05;4.40;;;12.90;99.90;;;;;;4845209;29;20061;-93
2021/12/31 02:56:06;;;;;;;12.10;4.50;;;12.90;99.90;;;;;;4845294;29;20049;-94
2021/12/31 02:58:33;;;;;;;7.88;4.60;;;12.90;99.90;;;;;;4844840;29;20049;-91
2021/12/31 03:01:03;;;;;;;13.85;4.43;;;12.90;99.90;;;;;;4845446;29;20061;-94
2021/12/31 03:03:30;;;;;;;6.65;3.70;;;12.90;99.90;;;;;;4845298;29;20128;-92
2021/12/31 03:06:00;;;;;;;10.30;4.07;;;12.90;99.90;;;;;;4845336;29;20060;-91
2021/12/31 03:08:30;;;;;;;7.10;4.22;;;12.90;99.90;;;;;;4844756;29;20060;-92
2021/12/31 03:10:58;;;;;;;7.82;4.18;;;13.00;99.90;;;;;;4814403;29;20054;-92
2021/12/31 03:13:24;;;;;;;7.88;4.15;;;13.00;99.90;;;;;;4844763;29;20525;-92
2021/12/31 03:15:52;;;;;;;11.95;4.15;;;13.00;99.90;;;;;;4844627;29;20044;-95
2021/12/31 03:18:19;;;;;;;8.27;4.43;;;13.00;99.90;;;;;;4844918;29;20049;-92
2021/12/31 03:21:06;;;;;;;8.57;4.15;;;13.00;99.90;;;;;;4846610;29;20088;-92
2021/12/31 03:23:32;;;;;;;8.48;3.65;;;13.00;99.90;;;;;;4833243;29;20060;-94
2021/12/31 03:25:59;;;;;;;7.32;4.18;;;13.00;99.90;;;;;;4833175;29;20407;-92
2021/12/31 03:28:25;;;;;;;13.15;4.50;;;13.10;99.90;;;;;;4848661;29;20046;-93
2021/12/31 03:30:51;;;;;;;10.02;4.30;;;13.10;99.90;;;;;;4849223;29;20117;-94
2021/12/31 03:33:17;;;;;;;9.55;4.75;;;13.10;99.90;;;;;;4849166;29;20440;-92
2021/12/31 03:35:43;;;;;;;9.82;4.00;;;13.10;99.90;;;;;;4833831;29;20152;-94
2021/12/31 03:38:09;;;;;;;5.85;3.90;;;13.10;99.90;;;;;;4833309;29;20054;-92
2021/12/31 03:40:35;;;;;;;10.82;4.10;;;13.20;99.90;;;;;;4833229;29;20228;-93
2021/12/31 03:43:01;;;;;;;11.70;3.78;;;13.10;99.90;;;;;;4833434;29;20042;-92
2021/12/31 03:45:27;;;;;;;10.52;4.38;;;13.10;99.90;;;;;;4848780;29;20140;-92
2021/12/31 03:47:53;;;;;;;9.95;4.13;;;13.10;99.90;;;;;;4848618;29;20128;-93
2021/12/31 03:50:19;;;;;;;10.38;4.13;;;13.10;99.90;;;;;;4833921;29;20057;-92
2021/12/31 03:52:45;;;;;;;9.15;3.97;;;13.10;99.90;;;;;;4849796;29;20041;-93
2021/12/31 03:55:11;;;;;;;8.63;3.95;;;13.20;99.90;;;;;;4834232;29;20057;-93
2021/12/31 03:57:40;;;;;;;8.68;4.45;;;13.10;99.90;;;;;;4833385;29;20526;-94
2021/12/31 04:00:08;;;;;;;9.25;4.65;;;13.00;99.90;;;;;;4833259;29;20098;-93
2021/12/31 04:02:35;;;;;;;8.15;4.55;;;13.10;99.90;;;;;;4833536;29;20056;-94
2021/12/31 04:05:01;;;;;;;8.43;4.15;;;13.10;99.90;;;;;;4833647;29;20085;-95
2021/12/31 04:07:27;;;;;;;7.72;3.92;;;13.00;99.90;;;;;;4833971;29;20045;-93
2021/12/31 04:09:53;;;;;;;9.82;4.32;;;13.00;99.90;;;;;;4833895;29;20046;-95
2021/12/31 04:12:18;;;;;;;10.63;4.35;;;13.00;99.90;;;;;;4832454;29;20057;-93
2021/12/31 04:14:46;;;;;;;9.20;4.38;;;13.00;99.90;;;;;;4833113;29;20042;-92
2021/12/31 04:17:12;;;;;;;9.82;4.07;;;13.00;99.90;;;;;;4832652;29;20049;-94
2021/12/31 04:19:38;;;;;;;7.95;4.32;;;13.00;99.90;;;;;;4832799;29;20068;-94
2021/12/31 04:22:04;;;;;;;9.07;4.18;;;13.00;99.90;;;;;;4832838;29;20056;-95
2021/12/31 04:27:08;;;;;;;9.77;3.80;;;13.00;99.90;;;;;;4848272;29;20089;-95
2021/12/31 04:29:34;;;;;;;6.95;3.38;;;13.10;99.90;;;;;;4832744;29;20045;-93
2021/12/31 04:32:03;;;;;;;9.30;3.40;;;13.10;99.90;;;;;;4832339;29;20053;-94
2021/12/31 04:34:29;;;;;;;8.13;3.50;;;13.10;99.90;;;;;;4833073;29;20052;-94
2021/12/31 04:36:55;;;;;;;9.82;3.50;;;13.10;99.90;;;;;;4832652;29;20090;-94
2021/12/31 04:39:21;;;;;;;8.80;3.45;;;13.00;99.90;;;;;;4832895;29;20056;-94
2021/12/31 04:41:50;;;;;;;9.45;2.72;;;13.10;99.90;;;;;;4832736;29;20049;-94
2021/12/31 04:44:16;;;;;;;9.20;3.03;;;13.10;99.90;;;;;;4832401;29;20492;-94
2021/12/31 04:46:42;;;;;;;6.68;2.30;;;13.00;99.90;;;;;;4832615;29;20063;-95
2021/12/31 04:49:07;;;;;;;7.03;2.45;;;13.10;99.90;;;;;;4832009;29;20131;-94
2021/12/31 04:51:34;;;;;;;9.02;2.30;;;13.20;99.90;;;;;;4832650;29;20085;-93
2021/12/31 04:54:00;;;;;;;4.28;1.90;;;13.10;99.90;;;;;;4832209;29;20053;-93
2021/12/31 04:56:26;;;;;;;5.45;2.17;;;13.10;99.90;;;;;;4816754;29;20136;-94
2021/12/31 04:58:52;;;;;;;7.25;2.10;;;13.20;99.90;;;;;;4831808;29;20520;-95
2021/12/31 05:01:21;;;;;;;6.78;2.00;;;13.20;99.90;;;;;;4832412;29;20049;-92
2021/12/31 05:03:48;;;;;;;5.28;1.73;;;13.20;99.90;;;;;;4847403;29;20057;-95
2021/12/31 05:06:14;;;;;;;5.78;1.83;;;13.20;99.90;;;;;;4832473;29;20049;-94
2021/12/31 05:08:39;;;;;;;6.80;2.03;;;13.20;99.90;;;;;;4831774;29;20049;-93
2021/12/31 05:11:08;;;;;;;7.00;2.08;;;13.30;99.90;;;;;;4831659;29;20061;-93
2021/12/31 05:13:34;;;;;;;5.57;1.63;;;13.20;99.90;;;;;;4817120;29;20093;-92
2021/12/31 05:16:03;;;;;;;8.88;2.03;;;13.20;99.90;;;;;;4832045;29;20133;-94
2021/12/31 05:18:30;;;;;;;5.65;2.20;;;13.20;99.90;;;;;;4832339;29;20144;-94
2021/12/31 05:20:55;;;;;;;4.60;1.63;;;13.20;99.90;;;;;;4847637;29;20377;-93
2021/12/31 05:23:21;;;;;;;7.00;1.60;;;13.20;99.90;;;;;;4846996;29;20056;-93
2021/12/31 05:25:50;;;;;;;4.15;1.90;;;13.20;99.90;;;;;;4832272;29;20455;-94
2021/12/31 05:28:15;;;;;;;5.68;2.00;;;13.20;99.90;;;;;;4831817;29;20508;-95
2021/12/31 05:30:41;;;;;;;5.43;1.60;;;13.20;99.90;;;;;;4831877;29;20056;-94
2021/12/31 05:33:07;;;;;;;6.65;1.70;;;13.10;99.90;;;;;;4846764;29;20037;-95
2021/12/31 05:35:33;;;;;;;7.28;1.60;;;13.00;99.90;;;;;;4846863;29;20147;-94
2021/12/31 05:37:59;;;;;;;5.05;1.60;;;13.00;99.90;;;;;;4831540;29;20053;-95
2021/12/31 05:40:25;;;;;;;4.15;1.83;;;12.90;99.90;;;;;;4831703;29;20433;-94
2021/12/31 05:42:51;;;;;;;2.88;1.40;;;12.80;99.90;;;;;;4831229;29;20093;-94
2021/12/31 05:45:17;;;;;;;4.38;1.60;;;12.80;99.90;;;;;;4832114;29;20060;-95
2021/12/31 05:47:42;;;;;;;4.30;1.55;;;12.70;99.90;;;;;;4831855;29;20484;-92
2021/12/31 05:50:18;;;;;;;8.30;2.08;;;12.80;99.90;;;;;;4831585;29;20061;-94
2021/12/31 05:52:45;;;;;;;8.55;1.25;;;12.70;99.90;;;;;;4831391;29;20076;-94
2021/12/31 05:55:30;;;;;;;3.58;1.50;;;12.60;99.90;;;;;;4831945;29;20050;-94
2021/12/31 05:57:56;;;;;;;4.60;1.38;;;12.80;99.90;;;;;;4831471;29;20386;-94
2021/12/31 06:00:23;;;;;;;3.78;1.33;;;12.70;99.90;;;;;;4831884;29;20049;-96
2021/12/31 06:02:49;;;;;;;6.38;1.63;;;12.70;99.90;;;;;;4831122;29;20428;-95
2021/12/31 06:05:16;;;;;;;2.00;1.35;;;12.60;99.90;;;;;;4846921;29;20049;-94
2021/12/31 06:07:41;;;;;;;5.82;1.63;;;12.70;99.90;;;;;;4830771;29;20049;-94
2021/12/31 06:10:08;;;;;;;5.50;1.83;;;12.70;99.90;;;;;;4830939;29;20377;-95
2021/12/31 06:12:35;;;;;;;5.60;1.50;;;12.70;99.90;;;;;;4830847;29;20072;-94
2021/12/31 06:15:04;;;;;;;6.07;1.85;;;12.70;99.90;;;;;;4831400;29;20140;-94
2021/12/31 06:17:31;;;;;;;3.50;1.20;;;12.70;99.90;;;;;;4832202;29;20059;-95
2021/12/31 06:19:57;;;;;;;3.63;1.50;;;12.70;99.90;;;;;;4832107;29;20050;-94
2021/12/31 06:22:24;;;;;;;2.50;1.30;;;12.70;99.90;;;;;;4831019;29;20049;-95
2021/12/31 06:25:25;;;;;;;6.97;1.60;;;12.70;99.90;;;;;;4846178;29;20072;-96
2021/12/31 06:27:51;;;;;;;4.05;1.30;;;12.60;99.90;;;;;;4831254;29;20046;-95
2021/12/31 06:30:17;;;;;;;2.58;1.40;;;12.70;99.90;;;;;;4831442;29;20049;-95
2021/12/31 06:32:42;;;;;;;4.30;1.38;;;12.70;99.90;;;;;;4831206;29;20060;-94
2021/12/31 06:35:08;;;;;;;4.90;1.70;;;12.60;99.90;;;;;;4830827;29;20053;-93
2021/12/31 06:37:34;;;;;;;3.83;1.40;;;12.70;99.90;;;;;;4830986;29;20061;-93
2021/12/31 06:40:24;;;;;;;5.03;1.38;;;12.70;99.90;;;;;;4830813;29;20079;-93
2021/12/31 06:42:50;;;;;;;5.57;1.38;;;12.60;99.90;;;;;;4831080;29;20493;-94
2021/12/31 06:45:16;;;;;;;4.78;1.73;;;12.60;99.90;;;;;;4831113;29;20053;-95
2021/12/31 06:47:41;;;;;;;6.30;1.60;;;12.60;99.90;;;;;;4830393;29;20041;-94
2021/12/31 06:50:08;;;;;;;3.83;1.40;;;12.70;99.90;;;;;;4846065;29;20122;-95
2021/12/31 06:52:38;;;;;;;4.68;1.35;;;12.60;99.90;;;;;;4830824;29;20145;-94
2021/12/31 06:55:06;;;;;;;2.60;1.27;;;12.60;99.90;;;;;;4830750;29;20049;-93
2021/12/31 06:57:32;;;;;;;6.03;1.33;;;12.50;99.90;;;;;;4845892;29;20500;-95
2021/12/31 07:00:00;;;;;;;6.45;1.50;;;12.50;99.90;;;;;;4845829;29;20061;-95
2021/12/31 07:02:26;;;;;;;5.53;1.88;;;12.50;99.90;;;;;;4831159;29;20464;-94
2021/12/31 07:04:52;;;;;;;3.25;1.60;;;12.50;99.90;;;;;;4830948;29;20140;-95
2021/12/31 07:07:17;;;;;;;6.13;1.52;;;12.60;99.90;;;;;;4831688;29;20076;-95
2021/12/31 07:09:47;;;;;;;4.28;1.70;;;12.50;99.90;;;;;;4846219;29;20046;-96
2021/12/31 07:12:51;;;;;;;5.95;1.58;;;12.50;99.90;;;;;;4848498;24;20095;-95
2021/12/31 07:16:41;;;;;;;3.97;1.33;;;12.40;99.90;;;;;;4787654;30;20055;-96
2021/12/31 07:20:03;;;;;;;5.32;1.50;;;12.50;99.90;;;;;;4772254;30;20130;-93
2021/12/31 07:24:21;;;;;;;6.13;1.85;;;12.40;99.90;;;;;;4734499;30;20068;-94
2021/12/31 07:27:50;;;;;;;4.20;1.40;;;12.40;99.90;;;;;;4682083;30;20127;-93
2021/12/31 07:30:50;;;;;;;5.72;1.70;;;12.40;99.90;;;;;;4665292;30;20054;-95
2021/12/31 07:34:04;;;;;;;3.88;1.48;;;12.30;99.90;;;;;;4650941;30;20582;-93
2021/12/31 07:37:12;;;;;;;4.13;1.52;;;12.30;99.90;;;;;;4648371;30;20056;-95
2021/12/31 07:40:28;;;;;;;6.47;2.03;;;12.40;99.90;;;;;;4634129;30;20068;-94
2021/12/31 07:43:58;;;;;;;7.05;1.75;;;12.30;99.90;;;;;;4636955;30;20061;-94
2021/12/31 07:47:19;;;;;;;6.13;1.52;;;12.30;99.90;;;;;;4593516;31;20147;-96
2021/12/31 07:50:11;;;;;;;3.50;1.65;;;12.30;99.90;;;;;;4580313;31;20073;-91
2021/12/31 07:53:44;;;;;;;3.00;1.77;;;12.30;99.90;;;;;;4539044;31;20056;-95
2021/12/31 07:56:31;;;;;;;6.10;1.67;;;12.30;99.90;;;;;;4638741;30;20081;-96
2021/12/31 08:00:42;;;;;;;3.70;1.80;;;12.30;99.90;;;;;;4660387;30;20089;-96
2021/12/31 08:03:28;;;;;;;4.07;1.77;;;12.50;99.90;;;;;;4649035;30;20062;-96
2021/12/31 08:07:24;;;;;;;4.57;1.60;;;12.60;99.90;;;;;;4684781;30;20089;-96
2021/12/31 08:10:56;;;;;;;4.13;1.48;;;12.60;99.90;;;;;;4691778;30;20126;-96
2021/12/31 08:14:08;;;;;;;4.25;1.50;;;12.70;99.90;;;;;;4627892;31;20095;-96
2021/12/31 08:25:26;;;;;;;3.35;1.50;;;12.70;99.90;;;;;;4568587;31;20317;-96
2021/12/31 08:29:15;;;;;;;;;;;;;;;;;;;;;
2021/12/31 08:32:56;;;;;;;5.70;1.77;;;12.80;99.90;;;;;;4575214;31;20085;-96
2021/12/31 08:36:26;;;;;;;7.82;2.10;;;12.80;99.90;;;;;;4604033;31;20179;-96
2021/12/31 08:40:24;;;;;;;5.65;1.80;;;12.80;99.90;;;;;;4607237;31;20098;-96
2021/12/31 08:47:44;;;;;;;;;;;;;;;;;;;;;
2021/12/31 08:50:35;;;;;;;4.93;1.80;;;12.90;99.90;;;;;;5122480;27;1369018;-95
2021/12/31 08:53:05;;;;;;;4.80;2.20;;;13.00;99.90;;;;;;5130150;27;20043;-96
2021/12/31 08:56:27;;;;;;;5.35;2.00;;;12.90;99.90;;;;;;5130028;27;20043;-95
2021/12/31 08:58:53;;;;;;;5.03;2.10;;;12.80;99.90;;;;;;5133661;27;20043;-95
2021/12/31 09:01:19;;;;;;;7.07;2.60;;;12.90;99.90;;;;;;5125481;27;20118;-95
2021/12/31 09:03:45;;;;;;;6.43;2.67;;;12.90;99.90;;;;;;5128890;27;20047;-96
2021/12/31 09:06:11;;;;;;;4.47;2.50;;;12.90;99.90;;;;;;5127152;27;20051;-93
2021/12/31 09:08:37;;;;;;;8.25;2.75;;;12.90;99.90;;;;;;5140076;27;20026;-95
2021/12/31 09:11:06;;;;;;;6.63;2.80;;;12.90;99.90;;;;;;5124193;27;20130;-96
2021/12/31 09:13:32;;;;;;;7.63;3.25;;;12.90;99.90;;;;;;5120905;27;20049;-96
2021/12/31 09:15:58;;;;;;;7.70;3.30;;;12.80;99.90;;;;;;5121220;27;20050;-95
2021/12/31 09:18:24;;;;;;;11.27;4.45;;;13.00;99.90;;;;;;5106763;27;20073;-96
2021/12/31 09:20:53;;;;;;;10.95;3.90;;;12.80;99.90;;;;;;5123854;27;20089;-95
2021/12/31 09:23:20;;;;;;;12.57;4.47;;;12.80;99.90;;;;;;5120418;27;20046;-95
2021/12/31 09:25:55;;;;;;;9.18;3.75;;;12.90;99.90;;;;;;5121682;27;20043;-96
2021/12/31 09:28:22;;;;;;;6.00;3.13;;;12.80;99.90;;;;;;5120828;27;20039;-96
2021/12/31 09:30:48;;;;;;;10.98;3.03;;;12.90;99.90;;;;;;5120780;27;20142;-95
2021/12/31 09:33:14;;;;;;;8.73;3.53;;;12.90;99.90;;;;;;5112020;28;20079;-95
2021/12/31 09:38:31;;;;;;;10.77;3.83;;;13.00;99.90;;;;;;5035752;28;20447;-94
2021/12/31 09:40:58;;;;;;;11.27;3.58;;;13.00;99.90;;;;;;5017316;28;20060;-94
2021/12/31 09:43:36;;;;;;;6.68;3.45;;;13.00;99.90;;;;;;5018570;28;20542;-96
2021/12/31 09:46:03;;;;;;;7.78;3.35;;;13.00;99.90;;;;;;5030329;28;20463;-96
2021/12/31 09:48:40;;;;;;;8.00;3.67;;;13.00;99.90;;;;;;5007514;28;20489;-94
2021/12/31 09:51:09;;;;;;;8.80;3.03;;;12.90;99.90;;;;;;5034038;28;20088;-95
2021/12/31 09:53:41;;;;;;;6.57;2.83;;;13.00;99.90;;;;;;5025347;28;20076;-95
2021/12/31 09:56:13;;;;;;;5.18;2.92;;;12.90;99.90;;;;;;4999786;28;20056;-94
2021/12/31 09:58:46;;;;;;;5.20;3.13;;;12.90;99.90;;;;;;5006217;28;20052;-95
2021/12/31 10:01:15;;;;;;;7.30;3.20;;;12.90;99.90;;;;;;4983195;28;20079;-95
2021/12/31 10:03:40;;;;;;;6.70;3.67;;;12.90;99.90;;;;;;5012153;28;20050;-95
2021/12/31 10:06:19;;;;;;;6.72;3.42;;;13.00;99.90;;;;;;4994922;28;20041;-96
2021/12/31 10:08:57;;;;;;;10.13;4.50;;;13.10;99.90;;;;;;5001945;28;20053;-96
2021/12/31 10:11:26;;;;;;;7.07;4.07;;;13.00;99.90;;;;;;5007315;28;20055;-95
2021/12/31 10:14:03;;;;;;;9.82;5.32;;;13.00;99.90;;;;;;5005104;28;20068;-96
2021/12/31 10:16:36;;;;;;;10.07;4.88;;;13.00;99.90;;;;;;5084541;28;20130;-96
2021/12/31 10:19:32;;;;;;;9.18;4.75;;;12.90;99.90;;;;;;5087709;28;20051;-96
2021/12/31 10:22:21;;;;;;;9.75;4.50;;;12.90;99.90;;;;;;5051667;27;20051;-96
2021/12/31 10:24:48;;;;;;;10.75;5.75;;;12.90;99.90;;;;;;5111279;27;20108;-95
2021/12/31 10:27:20;;;;;;;10.75;5.40;;;12.90;99.90;;;;;;5109675;27;20102;-96
2021/12/31 10:30:06;;;;;;;14.27;5.68;;;12.70;99.90;;;;;;5112987;27;20050;-96
2021/12/31 10:32:46;;;;;;;8.73;4.88;;;12.90;99.90;;;;;;5108747;27;20050;-96
2021/12/31 10:35:20;;;;;;;7.07;4.25;;;12.90;99.90;;;;;;5109361;27;20047;-96
2021/12/31 10:38:36;;;;;;;;;;;;;;;;;;;;;
2021/12/31 10:41:26;;;;;;;11.57;5.30;;;12.90;99.90;;;;;;5057049;28;20097;-94
2021/12/31 10:43:59;;;;;;;8.32;4.38;;;12.90;99.90;;;;;;5046149;28;20064;-95
2021/12/31 10:46:26;;;;;;;7.55;3.53;;;12.90;99.90;;;;;;5049115;28;20060;-95
2021/12/31 10:49:16;;;;;;;8.13;3.50;;;12.90;99.90;;;;;;5046843;28;20041;-96
2021/12/31 10:51:45;;;;;;;10.60;4.88;;;12.90;99.90;;;;;;5061088;28;20427;-96
2021/12/31 10:54:30;;;;;;;11.40;4.50;;;12.80;99.90;;;;;;5030541;28;20080;-96
2021/12/31 10:57:00;;;;;;;11.48;5.00;;;12.70;99.90;;;;;;5044341;28;20056;-96
2021/12/31 10:59:29;;;;;;;9.32;4.85;;;12.60;99.90;;;;;;5043202;28;20051;-96
2021/12/31 11:01:55;;;;;;;10.38;4.95;;;12.60;99.90;;;;;;5041868;28;20055;-95
2021/12/31 11:04:21;;;;;;;10.98;5.32;;;12.50;99.90;;;;;;5041755;28;20135;-95
2021/12/31 11:07:07;;;;;;;16.17;6.45;;;12.40;99.90;;;;;;5042117;28;20103;-95
2021/12/31 11:09:36;;;;;;;9.45;5.47;;;12.40;99.90;;;;;;5041604;28;20041;-95
2021/12/31 11:12:20;;;;;;;11.82;5.88;;;12.40;99.90;;;;;;5040587;28;20401;-96
2021/12/31 11:14:48;;;;;;;11.82;5.70;;;12.40;99.90;;;;;;5041369;28;20036;-94
2021/12/31 11:17:13;;;;;;;20.77;11.88;;;12.40;99.90;;;;;;5041018;28;20044;-96
2021/12/31 11:19:43;;;;;;;16.30;9.93;;;12.30;99.90;;;;;;5040259;28;20055;-94
2021/12/31 11:22:11;;;;;;;20.70;12.38;;;12.30;99.90;;;;;;5040257;28;20139;-94
2021/12/31 11:24:38;;;;;;;15.10;8.90;;;12.30;99.90;;;;;;5040844;28;20058;-96
2021/12/31 11:27:27;;;;;;;17.42;8.55;;;12.30;99.90;;;;;;5040697;28;20108;-94
2021/12/31 11:30:27;;;;;;;19.25;8.25;;;12.30;99.90;;;;;;4961378;28;20594;-95
2021/12/31 11:32:54;;;;;;;14.52;6.60;;;12.30;99.90;;;;;;4964284;28;20050;-96
2021/12/31 11:35:40;;;;;;;18.45;9.65;;;12.30;99.90;;;;;;4995686;28;20054;-94
2021/12/31 11:38:12;;;;;;;16.70;8.52;;;12.50;99.90;;;;;;4979908;28;20054;-94
2021/12/31 11:40:45;;;;;;;10.38;6.38;;;12.40;99.90;;;;;;4995430;28;20058;-92
2021/12/31 11:43:24;;;;;;;10.30;5.65;;;12.40;99.90;;;;;;4994926;28;20416;-94
2021/12/31 11:46:08;;;;;;;8.80;5.45;;;12.40;99.90;;;;;;4978227;28;20058;-94
2021/12/31 11:48:46;;;;;;;8.60;4.53;;;12.40;99.90;;;;;;4997917;28;20110;-94
2021/12/31 11:51:14;;;;;;;12.93;4.10;;;12.50;99.90;;;;;;5000203;28;20058;-93
2021/12/31 11:54:02;;;;;;;9.52;4.20;;;12.60;99.90;;;;;;4990009;28;20050;-94
2021/12/31 11:56:34;;;;;;;8.85;4.38;;;12.50;99.90;;;;;;5015738;28;20069;-95
2021/12/31 11:59:05;;;;;;;8.05;4.88;;;12.50;99.90;;;;;;5017975;28;20134;-94
2021/12/31 12:01:41;;;;;;;;;;;12.60;99.90;;;;;;5014310;28;20057;-95
2021/12/31 12:04:25;;;;;;;9.02;5.20;;;12.60;99.90;;;;;;4986650;28;19957;-95
2021/12/31 12:07:06;;;;;;;10.02;5.50;;;12.60;99.90;;;;;;5020401;28;20063;-94
2021/12/31 12:09:41;;;;;;;9.90;5.28;;;12.60;99.90;;;;;;5026729;28;20075;-96
2021/12/31 12:12:15;;;;;;;7.75;4.25;;;12.60;99.90;;;;;;5022058;28;20589;-93
2021/12/31 12:14:47;;;;;;;11.02;5.00;;;12.60;99.90;;;;;;5023208;28;20055;-95
2021/12/31 12:17:17;;;;;;;9.98;5.00;;;12.60;99.90;;;;;;5021463;28;20483;-95
2021/12/31 12:19:46;;;;;;;9.32;5.03;;;12.70;99.90;;;;;;5022907;28;20063;-95
2021/12/31 12:22:34;;;;;;;13.20;7.90;;;12.70;99.90;;;;;;5021711;28;20525;-95
2021/12/31 12:25:15;;;;;;;13.98;6.78;;;12.70;99.90;;;;;;5021336;28;20080;-93
2021/12/31 12:27:42;;;;;;;14.85;7.15;;;12.90;99.90;;;;;;5020207;28;20056;-92
2021/12/31 12:30:11;;;;;;;12.75;6.30;;;12.70;99.90;;;;;;5019355;28;20235;-91
2021/12/31 12:35:13;;;;;;;21.38;8.05;;;12.30;99.90;;;;;;5034923;28;20505;-89
2021/12/31 12:37:38;;;;;;;19.88;8.90;;;12.00;99.90;;;;;;5034663;28;20049;-92
2021/12/31 12:40:05;;;;;;;22.25;9.38;;;11.90;99.90;;;;;;5035459;28;20103;-90
2021/12/31 12:42:30;;;;;;;20.15;9.75;;;11.70;99.90;;;;;;5018667;28;20049;-90
2021/12/31 12:45:07;;;;;;;17.65;9.15;;;11.70;99.90;;;;;;5035068;28;20539;-90
2021/12/31 12:47:37;;;;;;;23.98;10.73;;;11.70;99.90;;;;;;5018724;28;20451;-91
2021/12/31 12:50:08;;;;;;;20.08;10.20;;;11.60;99.90;;;;;;5038028;28;20091;-90
2021/12/31 12:52:34;;;;;;;20.30;9.50;;;11.70;99.90;;;;;;5038309;28;20049;-90
2021/12/31 12:55:17;;;;;;;23.10;10.80;;;11.70;99.90;;;;;;5038432;28;20521;-89
2021/12/31 12:57:58;;;;;;;16.88;9.30;;;11.60;99.90;;;;;;5054529;28;20545;-90
2021/12/31 13:00:55;;;;;;;21.50;10.68;;;11.60;99.90;;;;;;5042505;28;20059;-92
2021/12/31 13:03:22;;;;;;;22.27;11.23;;;11.60;99.90;;;;;;5044658;28;20053;-92
2021/12/31 13:05:47;;;;;;;20.42;11.30;;;11.50;99.90;;;;;;5046383;28;20058;-90
2021/12/31 13:08:17;;;;;;;21.42;10.60;;;11.60;99.90;;;;;;5049764;28;20131;-91
2021/12/31 13:10:48;;;;;;;25.15;11.57;;;11.50;99.90;;;;;;5049699;28;20045;-89
2021/12/31 13:13:14;;;;;;;27.08;12.05;;;11.60;99.90;;;;;;5063699;28;20445;-91
2021/12/31 13:15:40;;;;;;;31.50;12.52;;;11.50;99.90;;;;;;5050194;28;20053;-89
2021/12/31 13:18:07;;;;;;;78.78;12.80;;;11.40;99.90;;;;;;5062728;28;20040;-89
2021/12/31 13:20:34;;;;;;;27.88;12.25;;;11.50;99.90;;;;;;5060911;28;20044;-89
2021/12/31 13:23:09;;;;;;;20.70;8.23;;;11.50;99.90;;;;;;5041559;28;20044;-88
2021/12/31 13:25:49;;;;;;;20.55;9.00;;;11.50;99.90;;;;;;5037165;28;20051;-89
2021/12/31 13:28:20;;;;;;;15.77;7.85;;;11.50;99.90;;;;;;5074962;28;20056;-89
2021/12/31 13:31:08;;;;;;;18.98;9.00;;;11.50;99.90;;;;;;5081807;28;20051;-89
2021/12/31 13:33:43;;;;;;;20.60;9.30;;;11.50;99.90;;;;;;5092241;28;20052;-90
2021/12/31 13:36:26;;;;;;;21.40;9.73;;;11.50;99.90;;;;;;5098378;28;20093;-90
2021/12/31 13:38:58;;;;;;;21.63;8.23;;;11.50;99.90;;;;;;5099610;28;20040;-89
2021/12/31 13:41:30;;;;;;;19.63;8.25;;;11.50;99.90;;;;;;5100161;28;20035;-91
2021/12/31 13:44:08;;;;;;;19.98;8.88;;;11.60;99.90;;;;;;5089615;28;20123;-92